KBLI

Bellingham International Airport

Bellingham, Washington, USA
KBLI 221733Z 2218/2318 VRB04KT P6SM SKC FM222000 27006KT P6SM SKC FM230400 18005KT P6SM SKC
Issued Valid From Valid To
Jul-22 @ 17:33 UTC
(3 hours ago)
Jul-22 @ 18:00 UTC
(2 hours ago)
Jul-23 @ 18:00 UTC
(in 22 hours)
Expired Click to View Jul-22 @ 18:00 to Jul-22 @ 20:00
KBLI 221733Z 2218/2318 VRB04KT P6SM SKC
Wind Visibility Clouds
Variable at 4 knots Greater than 6 miles
  • Clear skies
From Jul-22 @ 20:00 to Jul-23 @ 04:00
FM222000 27006KT P6SM SKC
Wind Visibility Clouds
270° at 6 knots Greater than 6 miles
  • Clear skies
From Jul-23 @ 04:00 to Jul-23 @ 18:00
FM230400 18005KT P6SM SKC
Wind Visibility Clouds
180° at 5 knots Greater than 6 miles
  • Clear skies
KBLI 221733Z 2218/2318 VRB04KT P6SM SKC FM222000 27006KT P6SM SKC FM230400 18005KT P6SM SKC
Issued Jul-22 @ 17:33 UTC
(3 hours ago)
Valid From Jul-22 @ 18:00 UTC
(2 hours ago)
Valid To Jul-23 @ 18:00 UTC
(in 22 hours)
Jul-22 @ 18:00 - Jul-22 @ 20:00
Wind Visibility
Variable at 4 knots Greater than 6 miles
Clouds
  • Clear skies
From Jul-22 @ 20:00 - Jul-23 @ 04:00
Wind Visibility
270° at 6 knots Greater than 6 miles
Clouds
  • Clear skies
From Jul-23 @ 04:00 - Jul-23 @ 18:00
Wind Visibility
180° at 5 knots Greater than 6 miles
Clouds
  • Clear skies